createdAt,value
2022-11-24T00:01:48.489Z,82.10
2022-11-24T00:04:20.308Z,82.20
2022-11-24T00:06:49.605Z,82.20
2022-11-24T00:09:18.705Z,82.20
2022-11-24T00:11:47.899Z,82.40
2022-11-24T00:14:17.062Z,82.40
2022-11-24T00:16:46.334Z,82.60
2022-11-24T00:19:19.529Z,82.60
2022-11-24T00:21:49.165Z,82.70
2022-11-24T00:24:18.840Z,82.60
2022-11-24T00:26:48.110Z,82.60
2022-11-24T00:29:17.406Z,82.50
2022-11-24T00:31:46.646Z,82.30
2022-11-24T00:34:15.911Z,82.30
2022-11-24T00:36:45.114Z,82.30
2022-11-24T00:39:15.963Z,82.30
2022-11-24T00:41:45.394Z,82.30
2022-11-24T00:44:14.576Z,82.30
2022-11-24T00:46:43.852Z,82.10
2022-11-24T00:49:13.092Z,82.00
2022-11-24T00:51:42.557Z,82.10
2022-11-24T00:54:11.762Z,82.20
2022-11-24T00:56:40.881Z,82.30
2022-11-24T00:59:10.059Z,82.40
2022-11-24T01:01:39.345Z,82.50
2022-11-24T01:04:08.890Z,82.40
2022-11-24T01:06:38.086Z,82.50
2022-11-24T01:09:07.290Z,82.40
2022-11-24T01:11:54.801Z,82.20
2022-11-24T01:14:25.209Z,82.20
2022-11-24T01:16:55.135Z,82.30
2022-11-24T01:19:24.335Z,82.30
2022-11-24T01:21:53.532Z,82.40
2022-11-24T01:24:23.023Z,82.50
2022-11-24T01:26:52.340Z,82.40
2022-11-24T01:29:21.538Z,82.50
2022-11-24T01:31:50.731Z,82.60
2022-11-24T01:34:19.896Z,82.60
2022-11-24T01:36:49.108Z,82.50
2022-11-24T01:39:18.362Z,82.50
2022-11-24T01:41:47.757Z,83.10
2022-11-24T01:44:28.150Z,82.50
2022-11-24T01:47:00.345Z,82.60
2022-11-24T01:49:38.548Z,82.80
2022-11-24T01:52:15.423Z,83.00
2022-11-24T01:54:53.063Z,83.00
2022-11-24T01:57:26.388Z,83.00
2022-11-24T02:00:01.903Z,82.90
2022-11-24T02:02:44.929Z,83.00
2022-11-24T02:05:19.800Z,83.00
2022-11-24T02:07:50.019Z,82.90
2022-11-24T02:10:19.428Z,83.10
2022-11-24T02:12:51.551Z,83.10
2022-11-24T02:15:21.312Z,83.00
2022-11-24T02:17:50.443Z,83.00
2022-11-24T02:20:20.013Z,83.10
2022-11-24T02:22:56.512Z,83.10
2022-11-24T02:25:31.648Z,83.10
2022-11-24T02:28:05.533Z,83.70
2022-11-24T02:30:35.914Z,83.10
2022-11-24T02:33:05.314Z,83.10
2022-11-24T02:35:34.759Z,83.10
2022-11-24T02:38:03.928Z,83.10
2022-11-24T02:40:33.471Z,83.00
2022-11-24T02:43:09.409Z,82.90
2022-11-24T02:45:38.766Z,82.90
2022-11-24T02:48:08.433Z,83.00
2022-11-24T02:50:37.860Z,83.00
2022-11-24T02:53:07.141Z,83.10
2022-11-24T02:55:36.284Z,83.00
2022-11-24T02:58:05.487Z,83.10
2022-11-24T03:00:34.681Z,83.00
2022-11-24T03:03:04.161Z,83.10
2022-11-24T03:05:33.420Z,83.10
2022-11-24T03:08:02.764Z,83.10
2022-11-24T03:10:31.972Z,83.20
2022-11-24T03:13:01.156Z,83.10
2022-11-24T03:15:30.587Z,83.20
2022-11-24T03:17:59.850Z,83.20
2022-11-24T03:20:29.261Z,83.30
2022-11-24T03:22:58.459Z,83.20
2022-11-24T03:25:27.568Z,83.40
2022-11-24T03:27:58.484Z,83.40
2022-11-24T03:30:27.794Z,83.40
2022-11-24T03:32:56.924Z,83.40
2022-11-24T03:35:26.219Z,83.60
2022-11-24T03:37:55.336Z,83.50
2022-11-24T03:40:24.567Z,83.50
2022-11-24T03:42:53.687Z,83.60
2022-11-24T03:48:12.126Z,83.70
2022-11-24T03:50:41.372Z,83.70
2022-11-24T03:53:10.987Z,83.70
2022-11-24T03:55:40.151Z,83.70
2022-11-24T03:58:09.261Z,83.90
2022-11-24T04:00:38.438Z,84.00
2022-11-24T04:03:07.743Z,84.00
2022-11-24T04:05:37.522Z,84.20
2022-11-24T04:08:07.184Z,84.10
2022-11-24T04:10:37.855Z,84.10
2022-11-24T04:13:16.330Z,84.00
2022-11-24T04:15:46.035Z,83.90
2022-11-24T04:18:15.424Z,83.80
2022-11-24T04:20:44.793Z,83.90
2022-11-24T04:23:14.161Z,83.90
2022-11-24T04:25:43.831Z,83.90
2022-11-24T04:28:14.368Z,84.00
2022-11-24T04:30:45.121Z,83.90
2022-11-24T04:33:14.676Z,84.00
2022-11-24T04:35:43.839Z,83.90
2022-11-24T04:38:13.003Z,84.10
2022-11-24T04:41:05.782Z,84.10
2022-11-24T04:43:40.291Z,84.10
2022-11-24T04:46:11.768Z,84.10
2022-11-24T04:48:42.299Z,84.10
2022-11-24T04:51:13.663Z,84.10
2022-11-24T04:53:42.888Z,84.00
2022-11-24T04:56:11.996Z,84.10
2022-11-24T04:58:41.233Z,84.20
2022-11-24T05:01:10.381Z,84.10
2022-11-24T05:03:40.275Z,84.10
2022-11-24T05:06:09.673Z,84.10
2022-11-24T05:08:38.881Z,84.00
2022-11-24T05:11:08.276Z,84.00
2022-11-24T05:13:37.437Z,83.60
2022-11-24T05:16:06.928Z,83.30
2022-11-24T05:18:36.085Z,83.20
2022-11-24T05:21:05.243Z,83.20
2022-11-24T05:23:34.449Z,82.80
2022-11-24T05:26:04.224Z,82.70
2022-11-24T05:28:33.683Z,82.80
2022-11-24T05:31:03.700Z,82.90
2022-11-24T05:33:33.551Z,82.60
2022-11-24T05:36:05.257Z,82.30
2022-11-24T05:38:35.536Z,82.40
2022-11-24T05:41:05.990Z,82.30
2022-11-24T05:43:35.117Z,82.20
2022-11-24T05:46:04.242Z,82.40
2022-11-24T05:48:33.386Z,82.30
2022-11-24T05:51:07.898Z,82.30
2022-11-24T05:53:38.365Z,82.10
2022-11-24T05:56:07.830Z,82.00
2022-11-24T05:58:36.982Z,82.10
2022-11-24T06:01:07.486Z,82.20
2022-11-24T06:03:36.615Z,82.20
2022-11-24T06:06:05.859Z,82.00
2022-11-24T06:08:35.235Z,81.80
2022-11-24T06:11:17.604Z,81.70
2022-11-24T06:13:48.727Z,81.70
2022-11-24T06:16:18.247Z,81.80
2022-11-24T06:18:47.396Z,82.00
2022-11-24T06:21:17.315Z,82.00
2022-11-24T06:23:49.623Z,82.00
2022-11-24T06:26:18.761Z,81.70
2022-11-24T06:28:47.897Z,82.50
2022-11-24T06:31:17.092Z,81.70
2022-11-24T06:33:47.077Z,81.40
2022-11-24T06:36:16.534Z,81.20
2022-11-24T06:38:45.724Z,81.20
2022-11-24T06:41:16.467Z,81.00
2022-11-24T06:43:46.355Z,80.60
2022-11-24T06:46:15.591Z,80.60
2022-11-24T06:48:44.807Z,80.40
2022-11-24T06:51:14.206Z,80.40
2022-11-24T06:53:43.343Z,80.90
2022-11-24T06:56:19.493Z,79.80
2022-11-24T06:58:50.591Z,79.80
2022-11-24T07:01:24.858Z,79.60
2022-11-24T07:03:55.209Z,79.20
2022-11-24T07:06:26.363Z,78.90
2022-11-24T07:08:56.522Z,78.80
2022-11-24T07:11:25.746Z,78.50
2022-11-24T07:13:59.696Z,78.60
2022-11-24T07:16:29.680Z,78.50
2022-11-24T07:18:59.181Z,78.40
2022-11-24T07:21:30.621Z,78.00
2022-11-24T07:23:59.774Z,77.70
2022-11-24T07:26:28.924Z,77.70
2022-11-24T07:28:59.976Z,76.70
2022-11-24T07:31:29.167Z,76.60
2022-11-24T07:33:58.300Z,76.40
2022-11-24T07:36:27.537Z,75.90
2022-11-24T07:38:56.702Z,75.70
2022-11-24T07:41:25.830Z,75.50
2022-11-24T07:43:55.691Z,75.70
2022-11-24T07:46:24.962Z,75.60
2022-11-24T07:48:54.137Z,75.50
2022-11-24T07:51:23.278Z,75.40
2022-11-24T07:53:52.446Z,75.30
2022-11-24T07:56:21.547Z,75.20
2022-11-24T07:58:53.124Z,75.10
2022-11-24T08:01:23.011Z,75.00
2022-11-24T08:03:52.280Z,74.80
2022-11-24T08:06:26.231Z,74.70
2022-11-24T08:08:58.133Z,74.50
2022-11-24T08:11:28.147Z,74.30
2022-11-24T08:13:57.381Z,74.00
2022-11-24T08:16:26.543Z,73.80
2022-11-24T08:18:56.188Z,73.40
2022-11-24T08:21:25.906Z,73.00
2022-11-24T08:23:56.251Z,72.90
2022-11-24T08:26:26.152Z,72.50
2022-11-24T08:28:57.745Z,72.30
2022-11-24T08:31:33.661Z,72.00
2022-11-24T08:34:04.103Z,71.50
2022-11-24T08:36:34.052Z,71.60
2022-11-24T08:39:03.439Z,71.60
2022-11-24T08:41:33.313Z,71.50
2022-11-24T08:44:02.467Z,71.40
2022-11-24T08:46:31.698Z,71.10
2022-11-24T08:49:00.885Z,70.60
2022-11-24T08:51:30.120Z,70.70
2022-11-24T08:54:01.319Z,70.70
2022-11-24T08:56:32.352Z,70.60
2022-11-24T08:59:02.473Z,70.00
2022-11-24T09:01:31.936Z,69.60
2022-11-24T09:06:27.854Z,69.30
2022-11-24T09:08:57.746Z,69.30
2022-11-24T09:11:27.808Z,69.30
2022-11-24T09:13:57.051Z,69.10
2022-11-24T09:16:29.073Z,68.70
2022-11-24T09:19:01.162Z,68.50
2022-11-24T09:21:32.041Z,68.20
2022-11-24T09:24:01.235Z,67.80
2022-11-24T09:26:32.569Z,67.90
2022-11-24T09:29:04.880Z,67.50
2022-11-24T09:31:37.312Z,67.50
2022-11-24T09:34:09.148Z,67.20
2022-11-24T09:36:38.388Z,66.80
2022-11-24T09:39:07.971Z,67.00
2022-11-24T09:41:50.504Z,67.10
2022-11-24T09:44:37.915Z,66.50
2022-11-24T09:47:21.738Z,66.70
2022-11-24T09:50:10.055Z,66.50
2022-11-24T09:53:05.978Z,65.90
2022-11-24T09:55:35.352Z,65.90
2022-11-24T09:58:41.369Z,65.60
2022-11-24T10:01:17.165Z,65.30
2022-11-24T10:03:51.122Z,65.20
2022-11-24T10:06:24.801Z,64.70
2022-11-24T10:09:29.354Z,64.30
2022-11-24T10:12:13.735Z,63.50
2022-11-24T10:15:30.913Z,62.80
2022-11-24T10:18:28.059Z,61.90
2022-11-24T10:21:04.932Z,61.10
2022-11-24T10:23:53.075Z,60.30
2022-11-24T10:26:37.195Z,60.00
2022-11-24T10:29:12.371Z,59.90
2022-11-24T10:31:44.652Z,60.10
2022-11-24T10:34:19.116Z,60.30
2022-11-24T10:36:57.836Z,60.50
2022-11-24T10:39:29.752Z,60.90
2022-11-24T10:42:29.320Z,61.20
2022-11-24T10:45:02.114Z,61.40
2022-11-24T10:47:32.672Z,61.60
2022-11-24T10:50:20.341Z,61.50
2022-11-24T10:52:58.219Z,61.10
2022-11-24T10:55:56.706Z,61.20
2022-11-24T10:58:28.779Z,61.10
2022-11-24T11:01:18.395Z,61.20
2022-11-24T11:03:55.990Z,61.20
2022-11-24T11:06:26.210Z,60.90
2022-11-24T11:09:07.542Z,61.00
2022-11-24T11:11:39.336Z,60.30
2022-11-24T11:14:11.211Z,59.90
2022-11-24T11:16:51.159Z,59.80
2022-11-24T11:19:54.127Z,60.00
2022-11-24T11:22:35.685Z,60.00
2022-11-24T11:25:10.158Z,60.00
2022-11-24T11:27:41.049Z,59.50
2022-11-24T11:36:15.918Z,59.20
2022-11-24T11:38:47.165Z,58.60
2022-11-24T11:41:28.458Z,58.00
2022-11-24T11:44:07.320Z,57.70
2022-11-24T11:46:37.090Z,57.70
2022-11-24T11:49:09.964Z,57.30
2022-11-24T11:55:30.207Z,56.30
2022-11-24T11:58:33.444Z,56.10
2022-11-24T12:01:14.592Z,56.20
2022-11-24T12:03:49.827Z,56.40
2022-11-24T12:06:44.092Z,56.40
2022-11-24T12:09:41.595Z,56.20
2022-11-24T12:12:34.448Z,56.30
2022-11-24T12:15:15.151Z,56.50
2022-11-24T12:17:55.114Z,56.80
2022-11-24T12:20:52.863Z,56.70
2022-11-24T12:23:22.036Z,56.80
2022-11-24T12:26:01.720Z,56.70
2022-11-24T12:28:52.373Z,56.90
2022-11-24T12:31:33.883Z,57.00
2022-11-24T12:34:24.261Z,57.10
2022-11-24T12:37:28.804Z,57.40
2022-11-24T12:40:11.051Z,57.50
2022-11-24T12:42:59.144Z,57.70
2022-11-24T12:45:51.891Z,58.00
2022-11-24T12:48:23.734Z,58.30
2022-11-24T12:50:56.029Z,58.50
2022-11-24T12:53:34.826Z,58.60
2022-11-24T12:56:16.422Z,58.60
2022-11-24T12:58:55.666Z,58.60
2022-11-24T13:01:41.036Z,58.70
2022-11-24T13:04:38.217Z,58.80
2022-11-24T13:07:16.565Z,59.00
2022-11-24T13:10:46.973Z,59.30
2022-11-24T13:13:16.704Z,59.40
2022-11-24T13:16:34.794Z,59.70
2022-11-24T13:18:55.939Z,59.80
2022-11-24T13:21:31.193Z,59.80
2022-11-24T13:24:03.854Z,59.90
2022-11-24T13:26:41.664Z,59.90
2022-11-24T13:29:33.194Z,60.00
2022-11-24T13:32:02.386Z,60.20
2022-11-24T13:34:40.613Z,60.30
2022-11-24T13:37:33.599Z,60.30
2022-11-24T13:40:14.364Z,60.60
2022-11-24T13:42:58.888Z,60.70
2022-11-24T13:45:41.047Z,60.80
2022-11-24T13:48:19.943Z,61.10
2022-11-24T13:50:53.336Z,61.20
2022-11-24T13:53:22.425Z,61.40
2022-11-24T13:55:58.881Z,61.50
2022-11-24T13:58:36.934Z,61.70
2022-11-24T14:01:09.094Z,61.70
2022-11-24T14:04:32.516Z,62.00
2022-11-24T14:07:09.559Z,62.30
2022-11-24T14:09:45.594Z,62.50
2022-11-24T14:12:17.335Z,62.70
2022-11-24T14:14:48.594Z,62.90
2022-11-24T14:17:28.563Z,63.00
2022-11-24T14:19:58.504Z,63.10
2022-11-24T14:22:35.956Z,63.30
2022-11-24T14:25:06.063Z,63.40
2022-11-24T14:27:38.936Z,63.50
2022-11-24T14:30:08.330Z,63.70
2022-11-24T14:32:40.334Z,63.80
2022-11-24T14:35:23.458Z,63.90
2022-11-24T14:37:52.797Z,63.90
2022-11-24T14:40:37.742Z,64.00
2022-11-24T14:43:16.940Z,64.30
2022-11-24T14:46:09.415Z,64.40
2022-11-24T14:48:46.879Z,64.60
2022-11-24T14:51:24.948Z,64.70
2022-11-24T14:53:57.867Z,64.80
2022-11-24T14:56:28.251Z,64.90
2022-11-24T14:58:59.234Z,65.60
2022-11-24T15:01:30.329Z,65.10
2022-11-24T15:07:27.202Z,65.20
2022-11-24T15:09:59.010Z,65.20
2022-11-24T15:12:34.431Z,65.10
2022-11-24T15:15:23.474Z,65.10
2022-11-24T15:18:00.620Z,65.00
2022-11-24T15:20:36.206Z,64.90
2022-11-24T15:23:23.018Z,64.80
2022-11-24T15:25:54.381Z,64.80
2022-11-24T15:28:26.162Z,65.00
2022-11-24T15:30:59.434Z,65.00
2022-11-24T15:33:29.432Z,65.80
2022-11-24T15:35:59.809Z,65.40
2022-11-24T15:38:29.029Z,65.50
2022-11-24T15:41:00.157Z,66.20
2022-11-24T15:43:32.135Z,65.80
2022-11-24T15:46:02.689Z,65.90
2022-11-24T15:48:32.086Z,66.00
2022-11-24T15:51:13.002Z,66.00
2022-11-24T15:53:53.318Z,66.20
2022-11-24T15:56:31.559Z,66.40
2022-11-24T15:59:01.567Z,66.50
2022-11-24T16:01:32.760Z,66.60
2022-11-24T16:04:02.799Z,66.70
2022-11-24T16:06:31.920Z,66.70
2022-11-24T16:09:01.528Z,66.80
2022-11-24T16:11:30.735Z,66.90
2022-11-24T16:13:59.864Z,67.00
2022-11-24T16:16:29.089Z,67.10
2022-11-24T16:18:58.359Z,67.20
2022-11-24T16:21:27.893Z,67.20
2022-11-24T16:23:57.136Z,67.30
2022-11-24T16:26:26.436Z,67.40
2022-11-24T16:28:55.630Z,67.50
2022-11-24T16:31:24.840Z,67.50
2022-11-24T16:33:53.974Z,67.60
2022-11-24T16:36:23.342Z,67.70
2022-11-24T16:38:52.473Z,67.80
2022-11-24T16:41:21.912Z,68.00
2022-11-24T16:43:51.264Z,68.00
2022-11-24T16:46:22.296Z,68.10
2022-11-24T16:48:53.823Z,68.20
2022-11-24T16:51:23.876Z,68.30
2022-11-24T16:54:00.268Z,68.40
2022-11-24T16:56:30.227Z,68.40
2022-11-24T16:58:59.308Z,68.60
2022-11-24T17:01:29.867Z,68.70
2022-11-24T17:03:59.786Z,68.80
2022-11-24T17:06:28.935Z,68.90
2022-11-24T17:08:58.158Z,69.60
2022-11-24T17:11:28.323Z,69.20
2022-11-24T17:14:01.050Z,69.30
2022-11-24T17:16:30.740Z,69.30
2022-11-24T17:19:00.037Z,69.50
2022-11-24T17:21:29.264Z,69.40
2022-11-24T17:24:06.824Z,69.60
2022-11-24T17:26:36.011Z,69.60
2022-11-24T17:29:05.158Z,69.60
2022-11-24T17:31:39.983Z,69.60
2022-11-24T17:34:11.407Z,69.70
2022-11-24T17:36:41.878Z,69.80
2022-11-24T17:39:11.218Z,69.80
2022-11-24T17:41:40.491Z,69.80
2022-11-24T17:44:10.744Z,69.80
2022-11-24T17:46:39.983Z,69.90
2022-11-24T17:49:13.115Z,70.00
2022-11-24T17:51:42.372Z,70.10
2022-11-24T17:54:44.755Z,70.10
2022-11-24T17:57:00.773Z,70.20
2022-11-24T17:59:29.973Z,70.30
2022-11-24T18:01:59.190Z,70.20
2022-11-24T18:04:28.440Z,70.20
2022-11-24T18:06:57.532Z,70.30
2022-11-24T18:09:26.656Z,70.40
2022-11-24T18:11:56.112Z,70.40
2022-11-24T18:14:25.185Z,70.40
2022-11-24T18:16:54.411Z,70.40
2022-11-24T18:19:23.682Z,70.40
2022-11-24T18:21:52.769Z,70.40
2022-11-24T18:24:24.239Z,71.00
2022-11-24T18:26:53.598Z,70.40
2022-11-24T18:29:22.824Z,70.40
2022-11-24T18:31:52.136Z,70.40
2022-11-24T18:34:24.758Z,70.50
2022-11-24T18:36:53.889Z,70.50
2022-11-24T18:39:23.037Z,70.50
2022-11-24T18:41:52.159Z,70.50
2022-11-24T18:44:21.327Z,70.40
2022-11-24T18:46:50.568Z,70.60
2022-11-24T18:49:19.745Z,70.60
2022-11-24T18:51:48.945Z,70.70
2022-11-24T18:54:18.144Z,70.60
2022-11-24T18:56:47.316Z,70.70
2022-11-24T18:59:16.421Z,70.70
2022-11-24T19:01:46.316Z,70.80
2022-11-24T19:04:15.623Z,70.80
2022-11-24T19:06:44.835Z,70.70
2022-11-24T19:09:16.487Z,70.80
2022-11-24T19:11:46.848Z,70.80
2022-11-24T19:14:17.914Z,70.70
2022-11-24T19:16:50.533Z,70.70
2022-11-24T19:19:19.836Z,70.80
2022-11-24T19:21:49.173Z,71.00
2022-11-24T19:24:18.339Z,70.90
2022-11-24T19:26:47.541Z,70.90
2022-11-24T19:29:16.660Z,70.90
2022-11-24T19:31:46.260Z,71.00
2022-11-24T19:34:15.814Z,71.10
2022-11-24T19:36:44.973Z,71.10
2022-11-24T19:39:15.556Z,71.10
2022-11-24T19:41:44.722Z,71.00
2022-11-24T19:44:14.238Z,71.00
2022-11-24T19:46:43.369Z,71.00
2022-11-24T19:49:12.456Z,71.20
2022-11-24T19:51:41.637Z,71.20
2022-11-24T19:54:13.279Z,71.20
2022-11-24T19:56:42.504Z,71.80
2022-11-24T19:59:13.452Z,71.30
2022-11-24T20:01:42.752Z,71.20
2022-11-24T20:04:15.033Z,71.30
2022-11-24T20:06:46.305Z,71.20
2022-11-24T20:09:17.380Z,71.20
2022-11-24T20:11:46.991Z,71.10
2022-11-24T20:14:19.102Z,71.20
2022-11-24T20:16:48.480Z,71.20
2022-11-24T20:19:18.459Z,71.30
2022-11-24T20:21:49.421Z,71.30
2022-11-24T20:24:21.903Z,71.40
2022-11-24T20:26:54.692Z,71.50
2022-11-24T20:29:24.167Z,71.60
2022-11-24T20:31:55.122Z,71.50
2022-11-24T20:34:25.101Z,71.50
2022-11-24T20:36:54.406Z,71.50
2022-11-24T20:39:26.621Z,71.60
2022-11-24T20:41:56.176Z,71.60
2022-11-24T20:44:27.385Z,71.60
2022-11-24T20:46:58.251Z,71.60
2022-11-24T20:49:28.156Z,71.80
2022-11-24T20:51:57.554Z,71.80
2022-11-24T20:54:26.818Z,72.10
2022-11-24T20:56:56.007Z,72.10
2022-11-24T20:59:25.840Z,72.20
2022-11-24T21:01:55.641Z,72.30
2022-11-24T21:04:26.871Z,72.30
2022-11-24T21:06:56.545Z,72.20
2022-11-24T21:09:27.229Z,72.40
2022-11-24T21:11:56.440Z,72.40
2022-11-24T21:14:25.652Z,72.50
2022-11-24T21:16:54.851Z,72.40
2022-11-24T21:19:24.047Z,72.50
2022-11-24T21:21:53.155Z,72.40
2022-11-24T21:24:22.362Z,72.50
2022-11-24T21:26:52.920Z,72.70
2022-11-24T21:29:25.643Z,73.00
2022-11-24T21:31:55.025Z,72.80
2022-11-24T21:34:24.191Z,73.00
2022-11-24T21:36:53.260Z,73.10
2022-11-24T21:39:22.491Z,73.30
2022-11-24T21:41:51.651Z,73.30
2022-11-24T21:44:20.850Z,73.40
2022-11-24T21:46:55.707Z,73.20
2022-11-24T21:49:25.159Z,73.10
2022-11-24T21:51:55.987Z,73.20
2022-11-24T21:54:25.468Z,73.20
2022-11-24T21:56:54.562Z,73.30
2022-11-24T21:59:23.743Z,73.40
2022-11-24T22:01:52.924Z,73.40
2022-11-24T22:04:22.310Z,73.60
2022-11-24T22:06:53.198Z,73.60
2022-11-24T22:09:22.374Z,73.50
2022-11-24T22:11:53.117Z,73.50
2022-11-24T22:14:22.268Z,73.60
2022-11-24T22:16:51.463Z,73.50
2022-11-24T22:19:20.677Z,73.60
2022-11-24T22:21:50.040Z,73.60
2022-11-24T22:24:24.285Z,73.90
2022-11-24T22:26:56.334Z,74.10
2022-11-24T22:29:25.629Z,74.10
2022-11-24T22:31:54.841Z,74.30
2022-11-24T22:34:23.969Z,74.60
2022-11-24T22:36:53.231Z,74.80
2022-11-24T22:39:22.391Z,74.90
2022-11-24T22:41:51.623Z,75.00
2022-11-24T22:44:20.770Z,75.10
2022-11-24T22:46:49.898Z,75.10
2022-11-24T22:49:19.091Z,75.30
2022-11-24T22:51:48.184Z,75.10
2022-11-24T22:54:17.387Z,74.70
2022-11-24T22:56:46.512Z,74.50
2022-11-24T22:59:15.732Z,74.30
2022-11-24T23:01:44.989Z,74.30
2022-11-24T23:04:14.275Z,73.90
2022-11-24T23:06:43.508Z,74.00
2022-11-24T23:09:12.897Z,73.90
2022-11-24T23:11:42.034Z,73.60
2022-11-24T23:14:14.148Z,73.60
2022-11-24T23:16:43.851Z,73.40
2022-11-24T23:19:13.090Z,73.40
2022-11-24T23:21:42.262Z,73.40
2022-11-24T23:24:11.663Z,73.50
2022-11-24T23:26:41.466Z,73.60
2022-11-24T23:29:11.696Z,73.70
2022-11-24T23:31:40.946Z,73.80
2022-11-24T23:34:10.414Z,73.80
2022-11-24T23:36:39.582Z,73.90
2022-11-24T23:39:13.100Z,74.00
2022-11-24T23:41:42.430Z,74.00
2022-11-24T23:44:11.566Z,74.20
2022-11-24T23:46:40.706Z,74.30
2022-11-24T23:49:10.039Z,74.30
2022-11-24T23:51:42.099Z,74.60
2022-11-24T23:56:58.348Z,74.60
2022-11-24T23:59:27.515Z,74.60
